sensor_id;sensor_type;location;lat;lon;timestamp;temperature;humidity
7844;DHT22;3967;48.702;9.326;2024-02-16T00:01:01;10.80;99.50
7844;DHT22;3967;48.702;9.326;2024-02-16T00:03:29;10.80;99.50
7844;DHT22;3967;48.702;9.326;2024-02-16T00:05:56;10.80;99.40
7844;DHT22;3967;48.702;9.326;2024-02-16T00:08:22;10.70;99.60
7844;DHT22;3967;48.702;9.326;2024-02-16T00:10:49;10.70;99.90
7844;DHT22;3967;48.702;9.326;2024-02-16T00:13:16;10.70;99.90
7844;DHT22;3967;48.702;9.326;2024-02-16T00:15:43;10.70;99.90
7844;DHT22;3967;48.702;9.326;2024-02-16T00:18:10;10.70;99.90
7844;DHT22;3967;48.702;9.326;2024-02-16T00:20:37;10.70;99.90
7844;DHT22;3967;48.702;9.326;2024-02-16T00:23:03;10.70;99.90
7844;DHT22;3967;48.702;9.326;2024-02-16T00:25:30;10.70;99.90
7844;DHT22;3967;48.702;9.326;2024-02-16T00:27:59;10.70;99.90
7844;DHT22;3967;48.702;9.326;2024-02-16T00:30:26;10.70;99.90
7844;DHT22;3967;48.702;9.326;2024-02-16T00:32:54;10.80;99.90
7844;DHT22;3967;48.702;9.326;2024-02-16T00:35:21;10.70;99.90
7844;DHT22;3967;48.702;9.326;2024-02-16T00:37:48;10.70;99.90
7844;DHT22;3967;48.702;9.326;2024-02-16T00:40:14;10.70;99.90
7844;DHT22;3967;48.702;9.326;2024-02-16T00:42:41;10.60;99.90
7844;DHT22;3967;48.702;9.326;2024-02-16T00:45:08;10.60;99.90
7844;DHT22;3967;48.702;9.326;2024-02-16T00:47:35;10.50;99.90
7844;DHT22;3967;48.702;9.326;2024-02-16T00:50:03;10.50;99.90
7844;DHT22;3967;48.702;9.326;2024-02-16T00:52:32;10.50;99.90
7844;DHT22;3967;48.702;9.326;2024-02-16T00:54:58;10.40;99.90
7844;DHT22;3967;48.702;9.326;2024-02-16T00:57:25;10.40;99.90
7844;DHT22;3967;48.702;9.326;2024-02-16T00:59:52;10.40;99.90
7844;DHT22;3967;48.702;9.326;2024-02-16T01:02:19;10.30;99.90
7844;DHT22;3967;48.702;9.326;2024-02-16T01:04:46;10.30;99.90
7844;DHT22;3967;48.702;9.326;2024-02-16T01:07:13;10.30;99.90
7844;DHT22;3967;48.702;9.326;2024-02-16T01:09:40;10.30;99.90
7844;DHT22;3967;48.702;9.326;2024-02-16T01:12:07;10.40;99.90
7844;DHT22;3967;48.702;9.326;2024-02-16T01:14:34;10.30;99.90
7844;DHT22;3967;48.702;9.326;2024-02-16T01:17:01;10.30;99.90
7844;DHT22;3967;48.702;9.326;2024-02-16T01:19:27;10.30;99.90
7844;DHT22;3967;48.702;9.326;2024-02-16T01:21:54;10.40;99.90
7844;DHT22;3967;48.702;9.326;2024-02-16T01:24:24;10.40;99.90
7844;DHT22;3967;48.702;9.326;2024-02-16T01:26:51;10.30;99.90
7844;DHT22;3967;48.702;9.326;2024-02-16T01:29:17;10.40;99.90
7844;DHT22;3967;48.702;9.326;2024-02-16T01:31:45;10.30;99.90
7844;DHT22;3967;48.702;9.326;2024-02-16T01:34:11;10.30;99.90
7844;DHT22;3967;48.702;9.326;2024-02-16T01:36:38;10.40;99.90
7844;DHT22;3967;48.702;9.326;2024-02-16T01:39:05;10.30;99.90
7844;DHT22;3967;48.702;9.326;2024-02-16T01:41:33;10.20;99.90
7844;DHT22;3967;48.702;9.326;2024-02-16T01:44:00;10.30;99.90
7844;DHT22;3967;48.702;9.326;2024-02-16T01:46:27;10.30;99.90
7844;DHT22;3967;48.702;9.326;2024-02-16T01:48:54;10.30;99.90
7844;DHT22;3967;48.702;9.326;2024-02-16T01:51:24;10.20;99.90
7844;DHT22;3967;48.702;9.326;2024-02-16T01:53:52;10.20;99.90
7844;DHT22;3967;48.702;9.326;2024-02-16T01:56:21;9.90;99.90
7844;DHT22;3967;48.702;9.326;2024-02-16T01:58:48;9.80;99.90
7844;DHT22;3967;48.702;9.326;2024-02-16T02:01:15;9.80;99.90
7844;DHT22;3967;48.702;9.326;2024-02-16T02:03:42;9.90;99.90
7844;DHT22;3967;48.702;9.326;2024-02-16T02:06:08;10.00;99.90
7844;DHT22;3967;48.702;9.326;2024-02-16T02:08:35;9.90;99.90
7844;DHT22;3967;48.702;9.326;2024-02-16T02:11:03;9.80;99.90
7844;DHT22;3967;48.702;9.326;2024-02-16T02:13:30;9.70;99.90
7844;DHT22;3967;48.702;9.326;2024-02-16T02:15:58;9.90;99.90
7844;DHT22;3967;48.702;9.326;2024-02-16T02:18:26;10.00;99.90
7844;DHT22;3967;48.702;9.326;2024-02-16T02:20:52;10.00;99.90
7844;DHT22;3967;48.702;9.326;2024-02-16T02:23:20;10.00;99.90
7844;DHT22;3967;48.702;9.326;2024-02-16T02:25:47;9.90;99.90
7844;DHT22;3967;48.702;9.326;2024-02-16T02:28:15;9.70;99.90
7844;DHT22;3967;48.702;9.326;2024-02-16T02:30:43;9.60;99.90
7844;DHT22;3967;48.702;9.326;2024-02-16T02:33:11;9.60;99.90
7844;DHT22;3967;48.702;9.326;2024-02-16T02:35:40;9.40;99.90
7844;DHT22;3967;48.702;9.326;2024-02-16T02:38:07;9.50;99.90
7844;DHT22;3967;48.702;9.326;2024-02-16T02:40:34;9.70;99.90
7844;DHT22;3967;48.702;9.326;2024-02-16T02:43:00;9.70;99.90
7844;DHT22;3967;48.702;9.326;2024-02-16T02:45:27;9.80;99.90
7844;DHT22;3967;48.702;9.326;2024-02-16T02:47:54;9.80;99.90
7844;DHT22;3967;48.702;9.326;2024-02-16T02:50:21;9.80;99.90
7844;DHT22;3967;48.702;9.326;2024-02-16T02:52:48;9.60;99.90
7844;DHT22;3967;48.702;9.326;2024-02-16T02:55:15;9.60;99.90
7844;DHT22;3967;48.702;9.326;2024-02-16T02:57:42;9.70;99.90
7844;DHT22;3967;48.702;9.326;2024-02-16T03:00:10;9.70;99.90
7844;DHT22;3967;48.702;9.326;2024-02-16T03:02:40;9.80;99.90
7844;DHT22;3967;48.702;9.326;2024-02-16T03:05:07;9.80;99.90
7844;DHT22;3967;48.702;9.326;2024-02-16T03:07:35;9.90;99.90
7844;DHT22;3967;48.702;9.326;2024-02-16T03:10:02;9.90;99.90
7844;DHT22;3967;48.702;9.326;2024-02-16T03:12:31;9.90;99.90
7844;DHT22;3967;48.702;9.326;2024-02-16T03:14:58;9.90;99.90
7844;DHT22;3967;48.702;9.326;2024-02-16T03:17:25;9.80;99.90
7844;DHT22;3967;48.702;9.326;2024-02-16T03:19:52;9.70;99.90
7844;DHT22;3967;48.702;9.326;2024-02-16T03:22:20;9.70;99.90
7844;DHT22;3967;48.702;9.326;2024-02-16T03:24:46;9.60;99.90
7844;DHT22;3967;48.702;9.326;2024-02-16T03:27:14;9.50;99.90
7844;DHT22;3967;48.702;9.326;2024-02-16T03:29:41;9.40;99.90
7844;DHT22;3967;48.702;9.326;2024-02-16T03:32:08;9.30;99.90
7844;DHT22;3967;48.702;9.326;2024-02-16T03:34:35;9.40;99.90
7844;DHT22;3967;48.702;9.326;2024-02-16T03:37:02;9.30;99.90
7844;DHT22;3967;48.702;9.326;2024-02-16T03:39:28;9.30;99.90
7844;DHT22;3967;48.702;9.326;2024-02-16T03:41:55;9.40;99.90
7844;DHT22;3967;48.702;9.326;2024-02-16T03:44:22;9.40;99.90
7844;DHT22;3967;48.702;9.326;2024-02-16T03:46:49;9.40;99.90
7844;DHT22;3967;48.702;9.326;2024-02-16T03:49:17;9.40;99.90
7844;DHT22;3967;48.702;9.326;2024-02-16T03:51:44;9.30;99.90
7844;DHT22;3967;48.702;9.326;2024-02-16T03:54:11;9.20;99.90
7844;DHT22;3967;48.702;9.326;2024-02-16T03:56:37;9.10;99.90
7844;DHT22;3967;48.702;9.326;2024-02-16T03:59:04;9.00;99.90
7844;DHT22;3967;48.702;9.326;2024-02-16T04:01:35;9.00;99.90
7844;DHT22;3967;48.702;9.326;2024-02-16T04:04:02;9.10;99.90
7844;DHT22;3967;48.702;9.326;2024-02-16T04:06:29;9.20;99.90
7844;DHT22;3967;48.702;9.326;2024-02-16T04:08:56;9.40;99.90
7844;DHT22;3967;48.702;9.326;2024-02-16T04:11:23;9.30;99.90
7844;DHT22;3967;48.702;9.326;2024-02-16T04:13:50;9.30;99.90
7844;DHT22;3967;48.702;9.326;2024-02-16T04:16:16;9.30;99.90
7844;DHT22;3967;48.702;9.326;2024-02-16T04:18:44;9.20;99.90
7844;DHT22;3967;48.702;9.326;2024-02-16T04:21:10;9.10;99.90
7844;DHT22;3967;48.702;9.326;2024-02-16T04:23:37;9.20;99.90
7844;DHT22;3967;48.702;9.326;2024-02-16T04:26:04;9.20;99.90
7844;DHT22;3967;48.702;9.326;2024-02-16T04:28:33;9.20;99.90
7844;DHT22;3967;48.702;9.326;2024-02-16T04:31:00;9.20;99.90
7844;DHT22;3967;48.702;9.326;2024-02-16T04:33:27;9.30;99.90
7844;DHT22;3967;48.702;9.326;2024-02-16T04:35:54;9.30;99.90
7844;DHT22;3967;48.702;9.326;2024-02-16T04:38:20;9.40;99.90
7844;DHT22;3967;48.702;9.326;2024-02-16T04:40:47;9.40;99.90
7844;DHT22;3967;48.702;9.326;2024-02-16T04:43:14;9.40;99.90
7844;DHT22;3967;48.702;9.326;2024-02-16T04:45:41;9.50;99.90
7844;DHT22;3967;48.702;9.326;2024-02-16T04:48:08;9.40;99.90
7844;DHT22;3967;48.702;9.326;2024-02-16T04:50:35;9.40;99.90
7844;DHT22;3967;48.702;9.326;2024-02-16T04:53:02;9.40;99.90
7844;DHT22;3967;48.702;9.326;2024-02-16T04:55:29;9.50;99.90
7844;DHT22;3967;48.702;9.326;2024-02-16T04:57:57;9.50;99.90
7844;DHT22;3967;48.702;9.326;2024-02-16T05:00:25;9.50;99.90
7844;DHT22;3967;48.702;9.326;2024-02-16T05:02:52;9.60;99.90
7844;DHT22;3967;48.702;9.326;2024-02-16T05:05:19;9.60;99.90
7844;DHT22;3967;48.702;9.326;2024-02-16T05:07:50;9.60;99.90
7844;DHT22;3967;48.702;9.326;2024-02-16T05:10:17;9.60;99.90
7844;DHT22;3967;48.702;9.326;2024-02-16T05:12:43;9.60;99.90
7844;DHT22;3967;48.702;9.326;2024-02-16T05:15:10;9.60;99.90
7844;DHT22;3967;48.702;9.326;2024-02-16T05:17:40;9.60;99.90
7844;DHT22;3967;48.702;9.326;2024-02-16T05:20:13;9.50;99.90
7844;DHT22;3967;48.702;9.326;2024-02-16T05:22:43;9.50;99.90
7844;DHT22;3967;48.702;9.326;2024-02-16T05:25:13;9.50;99.90
7844;DHT22;3967;48.702;9.326;2024-02-16T05:27:40;9.60;99.90
7844;DHT22;3967;48.702;9.326;2024-02-16T05:30:09;9.60;99.90
7844;DHT22;3967;48.702;9.326;2024-02-16T05:32:37;9.60;99.90
7844;DHT22;3967;48.702;9.326;2024-02-16T05:35:04;9.50;99.90
7844;DHT22;3967;48.702;9.326;2024-02-16T05:37:42;9.60;99.90
7844;DHT22;3967;48.702;9.326;2024-02-16T05:40:11;9.60;99.90
7844;DHT22;3967;48.702;9.326;2024-02-16T05:42:57;9.70;99.90
7844;DHT22;3967;48.702;9.326;2024-02-16T05:45:25;9.80;99.90
7844;DHT22;3967;48.702;9.326;2024-02-16T05:47:53;9.80;99.90
7844;DHT22;3967;48.702;9.326;2024-02-16T05:50:21;9.80;99.90
7844;DHT22;3967;48.702;9.326;2024-02-16T05:52:49;9.80;99.90
7844;DHT22;3967;48.702;9.326;2024-02-16T05:55:18;9.80;99.90
7844;DHT22;3967;48.702;9.326;2024-02-16T05:57:47;9.90;99.90
7844;DHT22;3967;48.702;9.326;2024-02-16T06:00:14;9.90;99.90
7844;DHT22;3967;48.702;9.326;2024-02-16T06:02:42;9.80;99.90
7844;DHT22;3967;48.702;9.326;2024-02-16T06:05:09;9.90;99.90
7844;DHT22;3967;48.702;9.326;2024-02-16T06:07:37;9.80;99.90
7844;DHT22;3967;48.702;9.326;2024-02-16T06:10:07;9.80;99.90
7844;DHT22;3967;48.702;9.326;2024-02-16T06:12:38;9.80;99.90
7844;DHT22;3967;48.702;9.326;2024-02-16T06:15:05;9.80;99.90
7844;DHT22;3967;48.702;9.326;2024-02-16T06:17:33;9.80;99.90
7844;DHT22;3967;48.702;9.326;2024-02-16T06:20:00;9.70;99.90
7844;DHT22;3967;48.702;9.326;2024-02-16T06:22:27;9.70;99.90
7844;DHT22;3967;48.702;9.326;2024-02-16T06:24:54;9.70;99.90
7844;DHT22;3967;48.702;9.326;2024-02-16T06:27:21;9.70;99.90
7844;DHT22;3967;48.702;9.326;2024-02-16T06:29:48;9.60;99.90
7844;DHT22;3967;48.702;9.326;2024-02-16T06:32:15;9.60;99.90
7844;DHT22;3967;48.702;9.326;2024-02-16T06:34:44;9.50;99.90
7844;DHT22;3967;48.702;9.326;2024-02-16T06:37:12;9.50;99.90
7844;DHT22;3967;48.702;9.326;2024-02-16T06:39:39;9.50;99.90
7844;DHT22;3967;48.702;9.326;2024-02-16T06:42:06;9.40;99.90
7844;DHT22;3967;48.702;9.326;2024-02-16T06:44:33;9.40;99.90
7844;DHT22;3967;48.702;9.326;2024-02-16T06:47:00;9.30;99.90
7844;DHT22;3967;48.702;9.326;2024-02-16T06:49:27;9.20;99.90
7844;DHT22;3967;48.702;9.326;2024-02-16T06:51:53;9.20;99.90
7844;DHT22;3967;48.702;9.326;2024-02-16T06:54:21;9.20;99.90
7844;DHT22;3967;48.702;9.326;2024-02-16T06:56:48;9.30;99.90
7844;DHT22;3967;48.702;9.326;2024-02-16T06:59:18;9.40;99.90
7844;DHT22;3967;48.702;9.326;2024-02-16T07:01:45;9.40;99.90
7844;DHT22;3967;48.702;9.326;2024-02-16T07:04:12;9.40;99.90
7844;DHT22;3967;48.702;9.326;2024-02-16T07:06:39;9.40;99.90
7844;DHT22;3967;48.702;9.326;2024-02-16T07:09:06;9.40;99.90
7844;DHT22;3967;48.702;9.326;2024-02-16T07:11:33;9.40;99.90
7844;DHT22;3967;48.702;9.326;2024-02-16T07:14:01;9.30;99.90
7844;DHT22;3967;48.702;9.326;2024-02-16T07:16:29;9.50;99.90
7844;DHT22;3967;48.702;9.326;2024-02-16T07:18:55;9.40;99.90
7844;DHT22;3967;48.702;9.326;2024-02-16T07:21:22;9.50;99.90
7844;DHT22;3967;48.702;9.326;2024-02-16T07:23:49;9.60;99.90
7844;DHT22;3967;48.702;9.326;2024-02-16T07:26:17;9.60;99.90
7844;DHT22;3967;48.702;9.326;2024-02-16T07:28:44;9.60;99.90
7844;DHT22;3967;48.702;9.326;2024-02-16T07:31:11;9.60;99.90
7844;DHT22;3967;48.702;9.326;2024-02-16T07:33:38;9.70;99.90
7844;DHT22;3967;48.702;9.326;2024-02-16T07:36:05;9.80;99.90
7844;DHT22;3967;48.702;9.326;2024-02-16T07:38:32;9.90;99.90
7844;DHT22;3967;48.702;9.326;2024-02-16T07:40:59;10.00;99.90
7844;DHT22;3967;48.702;9.326;2024-02-16T07:43:27;10.20;99.90
7844;DHT22;3967;48.702;9.326;2024-02-16T07:45:53;10.30;99.90
7844;DHT22;3967;48.702;9.326;2024-02-16T07:48:21;10.50;99.90
7844;DHT22;3967;48.702;9.326;2024-02-16T07:50:48;10.50;99.90
7844;DHT22;3967;48.702;9.326;2024-02-16T07:53:17;10.60;99.90
7844;DHT22;3967;48.702;9.326;2024-02-16T07:55:44;10.70;99.90
7844;DHT22;3967;48.702;9.326;2024-02-16T07:58:11;10.70;99.90
7844;DHT22;3967;48.702;9.326;2024-02-16T08:00:39;10.70;99.90
7844;DHT22;3967;48.702;9.326;2024-02-16T08:03:06;10.80;99.90
7844;DHT22;3967;48.702;9.326;2024-02-16T08:05:33;10.80;99.90
7844;DHT22;3967;48.702;9.326;2024-02-16T08:08:00;10.80;99.90
7844;DHT22;3967;48.702;9.326;2024-02-16T08:10:27;10.70;99.90
7844;DHT22;3967;48.702;9.326;2024-02-16T08:12:53;10.80;99.90
7844;DHT22;3967;48.702;9.326;2024-02-16T08:15:20;10.90;99.90
7844;DHT22;3967;48.702;9.326;2024-02-16T08:17:51;10.90;99.90
7844;DHT22;3967;48.702;9.326;2024-02-16T08:20:19;11.00;99.90
7844;DHT22;3967;48.702;9.326;2024-02-16T08:22:47;11.10;99.90
7844;DHT22;3967;48.702;9.326;2024-02-16T08:25:13;11.20;99.90
7844;DHT22;3967;48.702;9.326;2024-02-16T08:27:40;11.20;99.90
7844;DHT22;3967;48.702;9.326;2024-02-16T08:30:07;11.30;99.80
7844;DHT22;3967;48.702;9.326;2024-02-16T08:32:36;11.40;99.60
7844;DHT22;3967;48.702;9.326;2024-02-16T08:35:03;11.50;99.50
7844;DHT22;3967;48.702;9.326;2024-02-16T08:37:31;11.50;99.20
7844;DHT22;3967;48.702;9.326;2024-02-16T08:39:58;11.50;98.30
7844;DHT22;3967;48.702;9.326;2024-02-16T08:42:24;11.60;97.70
7844;DHT22;3967;48.702;9.326;2024-02-16T08:44:51;11.60;97.60
7844;DHT22;3967;48.702;9.326;2024-02-16T08:47:18;11.60;97.30
7844;DHT22;3967;48.702;9.326;2024-02-16T08:49:45;11.70;97.30
7844;DHT22;3967;48.702;9.326;2024-02-16T08:52:13;11.90;97.60
7844;DHT22;3967;48.702;9.326;2024-02-16T08:54:39;11.90;97.30
7844;DHT22;3967;48.702;9.326;2024-02-16T08:57:07;12.00;97.60
7844;DHT22;3967;48.702;9.326;2024-02-16T08:59:34;12.10;97.60
7844;DHT22;3967;48.702;9.326;2024-02-16T09:02:01;12.10;97.30
7844;DHT22;3967;48.702;9.326;2024-02-16T09:04:28;12.30;97.30
7844;DHT22;3967;48.702;9.326;2024-02-16T09:06:55;12.20;97.30
7844;DHT22;3967;48.702;9.326;2024-02-16T09:09:22;12.30;97.20
7844;DHT22;3967;48.702;9.326;2024-02-16T09:11:49;12.40;97.00
7844;DHT22;3967;48.702;9.326;2024-02-16T09:14:16;12.40;97.20
7844;DHT22;3967;48.702;9.326;2024-02-16T09:16:43;12.60;97.30
7844;DHT22;3967;48.702;9.326;2024-02-16T09:19:10;12.70;96.60
7844;DHT22;3967;48.702;9.326;2024-02-16T09:21:37;12.80;97.00
7844;DHT22;3967;48.702;9.326;2024-02-16T09:24:04;13.00;96.60
7844;DHT22;3967;48.702;9.326;2024-02-16T09:26:37;13.10;96.40
7844;DHT22;3967;48.702;9.326;2024-02-16T09:29:03;13.10;95.90
7844;DHT22;3967;48.702;9.326;2024-02-16T09:31:31;13.20;96.10
7844;DHT22;3967;48.702;9.326;2024-02-16T09:33:58;13.40;95.80
7844;DHT22;3967;48.702;9.326;2024-02-16T09:36:25;13.50;95.50
7844;DHT22;3967;48.702;9.326;2024-02-16T09:38:51;13.70;95.30
7844;DHT22;3967;48.702;9.326;2024-02-16T09:41:19;13.90;94.60
7844;DHT22;3967;48.702;9.326;2024-02-16T09:43:48;14.00;93.20
7844;DHT22;3967;48.702;9.326;2024-02-16T09:46:15;14.20;93.60
7844;DHT22;3967;48.702;9.326;2024-02-16T09:48:43;14.30;93.00
7844;DHT22;3967;48.702;9.326;2024-02-16T09:51:15;14.50;93.10
7844;DHT22;3967;48.702;9.326;2024-02-16T09:53:42;14.70;92.80
7844;DHT22;3967;48.702;9.326;2024-02-16T09:56:09;14.70;91.80
7844;DHT22;3967;48.702;9.326;2024-02-16T09:58:36;14.80;91.20
7844;DHT22;3967;48.702;9.326;2024-02-16T10:01:04;15.00;90.50
7844;DHT22;3967;48.702;9.326;2024-02-16T10:03:31;15.10;86.70
7844;DHT22;3967;48.702;9.326;2024-02-16T10:06:08;15.40;86.50
7844;DHT22;3967;48.702;9.326;2024-02-16T10:08:50;15.40;84.50
7844;DHT22;3967;48.702;9.326;2024-02-16T10:11:19;15.40;84.30
7844;DHT22;3967;48.702;9.326;2024-02-16T10:14:03;15.70;84.80
7844;DHT22;3967;48.702;9.326;2024-02-16T10:16:31;15.90;84.30
7844;DHT22;3967;48.702;9.326;2024-02-16T10:19:08;16.10;84.20
7844;DHT22;3967;48.702;9.326;2024-02-16T10:21:43;16.00;82.90
7844;DHT22;3967;48.702;9.326;2024-02-16T10:24:12;16.00;82.70
7844;DHT22;3967;48.702;9.326;2024-02-16T10:26:41;16.10;82.20
7844;DHT22;3967;48.702;9.326;2024-02-16T10:29:10;16.10;82.70
7844;DHT22;3967;48.702;9.326;2024-02-16T10:31:38;16.10;82.20
7844;DHT22;3967;48.702;9.326;2024-02-16T10:34:06;16.10;82.20
7844;DHT22;3967;48.702;9.326;2024-02-16T10:36:35;16.00;82.30
7844;DHT22;3967;48.702;9.326;2024-02-16T10:39:04;16.00;82.50
7844;DHT22;3967;48.702;9.326;2024-02-16T10:41:34;16.00;82.70
7844;DHT22;3967;48.702;9.326;2024-02-16T10:44:03;16.00;82.80
7844;DHT22;3967;48.702;9.326;2024-02-16T10:46:36;16.20;83.00
7844;DHT22;3967;48.702;9.326;2024-02-16T10:49:04;16.30;82.70
7844;DHT22;3967;48.702;9.326;2024-02-16T10:51:40;16.40;82.10
7844;DHT22;3967;48.702;9.326;2024-02-16T10:54:08;16.50;82.20
7844;DHT22;3967;48.702;9.326;2024-02-16T10:56:39;16.50;81.90
7844;DHT22;3967;48.702;9.326;2024-02-16T10:59:10;16.70;81.80
7844;DHT22;3967;48.702;9.326;2024-02-16T11:01:42;16.70;81.70
7844;DHT22;3967;48.702;9.326;2024-02-16T11:04:17;16.90;82.50
7844;DHT22;3967;48.702;9.326;2024-02-16T11:11:54;17.00;80.30
7844;DHT22;3967;48.702;9.326;2024-02-16T11:14:21;17.10;79.90
7844;DHT22;3967;48.702;9.326;2024-02-16T11:16:54;17.20;80.60
7844;DHT22;3967;48.702;9.326;2024-02-16T11:19:22;17.20;79.20
7844;DHT22;3967;48.702;9.326;2024-02-16T11:21:58;17.20;79.90
7844;DHT22;3967;48.702;9.326;2024-02-16T11:24:32;17.20;80.30
7844;DHT22;3967;48.702;9.326;2024-02-16T11:27:04;17.20;79.70
7844;DHT22;3967;48.702;9.326;2024-02-16T11:29:34;17.30;80.30
7844;DHT22;3967;48.702;9.326;2024-02-16T11:32:02;17.30;79.80
7844;DHT22;3967;48.702;9.326;2024-02-16T11:34:30;17.20;80.20
7844;DHT22;3967;48.702;9.326;2024-02-16T11:36:58;17.20;80.50
7844;DHT22;3967;48.702;9.326;2024-02-16T11:39:25;17.20;80.70
7844;DHT22;3967;48.702;9.326;2024-02-16T11:44:34;17.40;79.80
7844;DHT22;3967;48.702;9.326;2024-02-16T11:47:02;17.50;79.30
7844;DHT22;3967;48.702;9.326;2024-02-16T11:49:29;17.60;79.20
7844;DHT22;3967;48.702;9.326;2024-02-16T11:51:59;17.60;78.10
7844;DHT22;3967;48.702;9.326;2024-02-16T11:54:26;17.60;78.50
7844;DHT22;3967;48.702;9.326;2024-02-16T11:56:53;17.60;78.90
7844;DHT22;3967;48.702;9.326;2024-02-16T11:59:20;17.70;78.40
7844;DHT22;3967;48.702;9.326;2024-02-16T12:01:55;17.50;79.10
7844;DHT22;3967;48.702;9.326;2024-02-16T12:04:28;17.50;79.60
7844;DHT22;3967;48.702;9.326;2024-02-16T12:07:01;17.60;79.20
7844;DHT22;3967;48.702;9.326;2024-02-16T12:09:31;17.60;78.50
7844;DHT22;3967;48.702;9.326;2024-02-16T12:12:02;17.60;78.40
7844;DHT22;3967;48.702;9.326;2024-02-16T12:14:29;17.60;79.10
7844;DHT22;3967;48.702;9.326;2024-02-16T12:16:58;17.60;78.60
7844;DHT22;3967;48.702;9.326;2024-02-16T12:19:25;17.70;78.00
7844;DHT22;3967;48.702;9.326;2024-02-16T12:21:53;17.90;78.60
7844;DHT22;3967;48.702;9.326;2024-02-16T12:24:21;17.90;78.00
7844;DHT22;3967;48.702;9.326;2024-02-16T12:26:48;17.80;76.90
7844;DHT22;3967;48.702;9.326;2024-02-16T12:29:16;17.90;77.80
7844;DHT22;3967;48.702;9.326;2024-02-16T12:31:44;18.10;77.10
7844;DHT22;3967;48.702;9.326;2024-02-16T12:34:14;18.10;77.80
7844;DHT22;3967;48.702;9.326;2024-02-16T12:36:42;18.00;77.60
7844;DHT22;3967;48.702;9.326;2024-02-16T12:39:14;18.00;78.10
7844;DHT22;3967;48.702;9.326;2024-02-16T12:41:42;17.90;76.90
7844;DHT22;3967;48.702;9.326;2024-02-16T12:44:10;18.10;77.70
7844;DHT22;3967;48.702;9.326;2024-02-16T12:46:37;18.10;77.70
7844;DHT22;3967;48.702;9.326;2024-02-16T12:49:05;18.10;76.70
7844;DHT22;3967;48.702;9.326;2024-02-16T12:51:33;18.20;76.80
7844;DHT22;3967;48.702;9.326;2024-02-16T12:54:00;18.20;76.40
7844;DHT22;3967;48.702;9.326;2024-02-16T12:56:30;18.20;76.20
7844;DHT22;3967;48.702;9.326;2024-02-16T12:58:57;18.30;76.30
7844;DHT22;3967;48.702;9.326;2024-02-16T13:01:27;18.10;76.50
7844;DHT22;3967;48.702;9.326;2024-02-16T13:03:54;18.10;76.20
7844;DHT22;3967;48.702;9.326;2024-02-16T13:06:21;18.20;76.10
7844;DHT22;3967;48.702;9.326;2024-02-16T13:08:52;18.20;75.80
7844;DHT22;3967;48.702;9.326;2024-02-16T13:11:20;18.20;75.60
7844;DHT22;3967;48.702;9.326;2024-02-16T13:13:47;18.20;75.40
7844;DHT22;3967;48.702;9.326;2024-02-16T13:16:14;18.30;75.70
7844;DHT22;3967;48.702;9.326;2024-02-16T13:18:41;18.40;75.60
7844;DHT22;3967;48.702;9.326;2024-02-16T13:21:08;18.30;75.20
7844;DHT22;3967;48.702;9.326;2024-02-16T13:23:35;18.40;75.30
7844;DHT22;3967;48.702;9.326;2024-02-16T13:26:02;18.30;74.70
7844;DHT22;3967;48.702;9.326;2024-02-16T13:28:31;18.20;76.00
7844;DHT22;3967;48.702;9.326;2024-02-16T13:30:57;18.10;75.50
7844;DHT22;3967;48.702;9.326;2024-02-16T13:33:25;18.10;76.60
7844;DHT22;3967;48.702;9.326;2024-02-16T13:35:52;18.00;76.90
7844;DHT22;3967;48.702;9.326;2024-02-16T13:38:21;17.90;77.60
7844;DHT22;3967;48.702;9.326;2024-02-16T13:40:48;17.70;78.40
7844;DHT22;3967;48.702;9.326;2024-02-16T13:43:16;17.70;78.50
7844;DHT22;3967;48.702;9.326;2024-02-16T13:45:53;17.70;78.70
7844;DHT22;3967;48.702;9.326;2024-02-16T13:48:20;17.80;79.50
7844;DHT22;3967;48.702;9.326;2024-02-16T13:50:49;17.90;78.70
7844;DHT22;3967;48.702;9.326;2024-02-16T13:53:17;18.00;78.60
7844;DHT22;3967;48.702;9.326;2024-02-16T13:55:47;17.90;78.20
7844;DHT22;3967;48.702;9.326;2024-02-16T13:58:15;18.00;78.80
7844;DHT22;3967;48.702;9.326;2024-02-16T14:00:42;18.10;79.10
7844;DHT22;3967;48.702;9.326;2024-02-16T14:03:10;18.30;79.20
7844;DHT22;3967;48.702;9.326;2024-02-16T14:05:39;18.20;78.20
7844;DHT22;3967;48.702;9.326;2024-02-16T14:08:06;18.30;78.80
7844;DHT22;3967;48.702;9.326;2024-02-16T14:10:35;18.00;78.20
7844;DHT22;3967;48.702;9.326;2024-02-16T14:13:02;17.80;78.40
7844;DHT22;3967;48.702;9.326;2024-02-16T14:15:30;17.90;78.80
7844;DHT22;3967;48.702;9.326;2024-02-16T14:17:59;18.00;79.40
7844;DHT22;3967;48.702;9.326;2024-02-16T14:20:36;18.20;79.50
7844;DHT22;3967;48.702;9.326;2024-02-16T14:23:03;18.30;79.20
7844;DHT22;3967;48.702;9.326;2024-02-16T14:25:30;18.40;79.20
7844;DHT22;3967;48.702;9.326;2024-02-16T14:27:57;18.40;80.10
7844;DHT22;3967;48.702;9.326;2024-02-16T14:30:25;18.20;82.70
7844;DHT22;3967;48.702;9.326;2024-02-16T14:32:52;18.00;82.40
7844;DHT22;3967;48.702;9.326;2024-02-16T14:35:20;17.80;84.20
7844;DHT22;3967;48.702;9.326;2024-02-16T14:37:49;17.70;85.70
7844;DHT22;3967;48.702;9.326;2024-02-16T14:40:16;17.70;86.80
7844;DHT22;3967;48.702;9.326;2024-02-16T14:42:43;17.60;86.50
7844;DHT22;3967;48.702;9.326;2024-02-16T14:45:10;17.50;86.40
7844;DHT22;3967;48.702;9.326;2024-02-16T14:47:47;17.50;87.50
7844;DHT22;3967;48.702;9.326;2024-02-16T14:50:14;17.40;88.60
7844;DHT22;3967;48.702;9.326;2024-02-16T14:52:42;17.50;87.80
7844;DHT22;3967;48.702;9.326;2024-02-16T14:55:09;17.60;87.80
7844;DHT22;3967;48.702;9.326;2024-02-16T14:57:41;17.60;88.90
7844;DHT22;3967;48.702;9.326;2024-02-16T15:00:09;17.50;90.10
7844;DHT22;3967;48.702;9.326;2024-02-16T15:02:38;17.50;90.20
7844;DHT22;3967;48.702;9.326;2024-02-16T15:05:06;17.60;87.60
7844;DHT22;3967;48.702;9.326;2024-02-16T15:07:34;17.60;85.50
7844;DHT22;3967;48.702;9.326;2024-02-16T15:10:02;17.60;85.70
7844;DHT22;3967;48.702;9.326;2024-02-16T15:12:30;17.50;84.30
7844;DHT22;3967;48.702;9.326;2024-02-16T15:14:57;17.60;84.40
7844;DHT22;3967;48.702;9.326;2024-02-16T15:17:25;17.60;84.70
7844;DHT22;3967;48.702;9.326;2024-02-16T15:19:53;17.50;84.90
7844;DHT22;3967;48.702;9.326;2024-02-16T15:22:20;17.50;85.10
7844;DHT22;3967;48.702;9.326;2024-02-16T15:24:47;17.40;85.70
7844;DHT22;3967;48.702;9.326;2024-02-16T15:27:14;17.40;85.90
7844;DHT22;3967;48.702;9.326;2024-02-16T15:29:41;17.40;85.70
7844;DHT22;3967;48.702;9.326;2024-02-16T15:32:08;17.40;86.10
7844;DHT22;3967;48.702;9.326;2024-02-16T15:34:35;17.40;86.30
7844;DHT22;3967;48.702;9.326;2024-02-16T15:37:02;17.40;86.10
7844;DHT22;3967;48.702;9.326;2024-02-16T15:39:30;17.40;85.70
7844;DHT22;3967;48.702;9.326;2024-02-16T15:41:57;17.50;85.70
7844;DHT22;3967;48.702;9.326;2024-02-16T15:44:24;17.50;87.00
7844;DHT22;3967;48.702;9.326;2024-02-16T15:46:51;17.40;87.20
7844;DHT22;3967;48.702;9.326;2024-02-16T15:49:18;17.40;87.60
7844;DHT22;3967;48.702;9.326;2024-02-16T15:51:45;17.40;87.40
7844;DHT22;3967;48.702;9.326;2024-02-16T15:54:12;17.40;88.10
7844;DHT22;3967;48.702;9.326;2024-02-16T15:56:39;17.40;87.60
7844;DHT22;3967;48.702;9.326;2024-02-16T15:59:06;17.40;87.50
7844;DHT22;3967;48.702;9.326;2024-02-16T16:01:33;17.30;87.90
7844;DHT22;3967;48.702;9.326;2024-02-16T16:04:02;17.40;89.10
7844;DHT22;3967;48.702;9.326;2024-02-16T16:06:29;17.40;88.70
7844;DHT22;3967;48.702;9.326;2024-02-16T16:08:56;17.30;88.90
7844;DHT22;3967;48.702;9.326;2024-02-16T16:11:23;17.30;89.10
7844;DHT22;3967;48.702;9.326;2024-02-16T16:13:50;17.30;89.70
7844;DHT22;3967;48.702;9.326;2024-02-16T16:16:17;17.30;90.40
7844;DHT22;3967;48.702;9.326;2024-02-16T16:18:44;17.30;90.10